createdAt,value
2024-04-16T00:00:23.519Z,93607.00
2024-04-16T00:03:17.575Z,93613.72
2024-04-16T00:06:04.489Z,93621.34
2024-04-16T00:08:37.629Z,93647.63
2024-04-16T00:11:24.532Z,93649.22
2024-04-16T00:13:57.642Z,93670.34
2024-04-16T00:16:44.667Z,93674.38
2024-04-16T00:19:18.591Z,93685.22
2024-04-16T00:22:05.528Z,93675.66
2024-04-16T00:24:38.616Z,93656.78
2024-04-16T00:27:25.507Z,93657.56
2024-04-16T00:30:00.060Z,93679.63
2024-04-16T00:32:46.641Z,93681.28
2024-04-16T00:35:20.634Z,93678.66
2024-04-16T00:38:14.517Z,93695.59
2024-04-16T00:41:08.534Z,93674.25
2024-04-16T00:44:02.531Z,93663.06
2024-04-16T00:46:49.594Z,93628.09
2024-04-16T00:49:23.756Z,93587.97
2024-04-16T00:52:12.566Z,93580.22
2024-04-16T00:54:46.636Z,93582.84
2024-04-16T00:57:33.512Z,93572.53
2024-04-16T01:00:06.625Z,93571.72
2024-04-16T01:02:53.529Z,93561.47
2024-04-16T01:05:26.624Z,93560.56
2024-04-16T01:08:15.540Z,93569.22
2024-04-16T01:10:49.618Z,93570.03
2024-04-16T01:13:36.572Z,93554.63
2024-04-16T01:16:10.652Z,93556.34
2024-04-16T01:18:57.546Z,93558.91
2024-04-16T01:21:30.640Z,93557.19
2024-04-16T01:24:10.554Z,93555.38
2024-04-16T01:26:50.561Z,93545.09
2024-04-16T01:29:30.636Z,93541.69
2024-04-16T01:32:10.616Z,93548.47
2024-04-16T01:34:50.654Z,93555.25
2024-04-16T01:37:44.547Z,93544.25
2024-04-16T01:40:38.633Z,93546.06
2024-04-16T01:43:25.545Z,93560.56
2024-04-16T01:45:58.716Z,93564.88
2024-04-16T01:48:45.533Z,93563.91
2024-04-16T01:51:18.640Z,93580.16
2024-04-16T01:54:05.536Z,93575.03
2024-04-16T01:56:38.640Z,93578.50
2024-04-16T01:59:25.552Z,93580.28
2024-04-16T02:01:58.666Z,93571.78
2024-04-16T02:04:45.627Z,93567.47
2024-04-16T02:07:18.700Z,93583.69
2024-04-16T02:10:05.581Z,93570.03
2024-04-16T02:12:45.589Z,93553.84
2024-04-16T02:15:39.548Z,93565.84
2024-04-16T02:18:26.650Z,93567.63
2024-04-16T02:20:59.709Z,93572.88
2024-04-16T02:23:49.612Z,93578.06
2024-04-16T02:26:22.658Z,93576.34
2024-04-16T02:29:09.561Z,93580.56
2024-04-16T02:31:42.887Z,93602.69
2024-04-16T02:34:29.587Z,93601.88
2024-04-16T02:37:02.756Z,93600.97
2024-04-16T02:39:49.595Z,93611.13
2024-04-16T02:42:22.667Z,93614.63
2024-04-16T02:45:09.568Z,93613.75
2024-04-16T02:47:42.764Z,93602.78
2024-04-16T02:50:29.596Z,93604.47
2024-04-16T02:53:02.679Z,93582.38
2024-04-16T02:55:49.566Z,93567.06
2024-04-16T02:58:22.748Z,93561.13
2024-04-16T03:01:13.753Z,93571.34
2024-04-16T03:04:00.648Z,93576.53
2024-04-16T03:06:54.570Z,93568.84
2024-04-16T03:09:43.617Z,93572.31
2024-04-16T03:12:16.671Z,93568.09
2024-04-16T03:15:03.595Z,93578.31
2024-04-16T03:17:36.828Z,93579.22
2024-04-16T03:20:23.601Z,93593.75
2024-04-16T03:22:59.736Z,93598.94
2024-04-16T03:25:49.599Z,93599.00
2024-04-16T03:28:22.833Z,93607.53
2024-04-16T03:31:09.635Z,93613.53
2024-04-16T03:33:43.706Z,93609.31
2024-04-16T03:36:37.612Z,93616.13
2024-04-16T03:39:24.598Z,93602.59
2024-04-16T03:41:57.740Z,93602.66
2024-04-16T03:44:44.611Z,93600.97
2024-04-16T03:47:17.748Z,93613.78
2024-04-16T03:50:04.632Z,93611.22
2024-04-16T03:52:37.800Z,93619.66
2024-04-16T03:55:24.674Z,93623.06
2024-04-16T03:57:58.231Z,93619.59
2024-04-16T04:01:04.857Z,93615.31
2024-04-16T04:03:43.348Z,93613.56
2024-04-16T04:06:30.601Z,93621.34
2024-04-16T04:09:03.732Z,93613.72
2024-04-16T04:11:50.602Z,93610.28
2024-04-16T04:14:23.779Z,93613.72
2024-04-16T04:17:10.654Z,93617.09
2024-04-16T04:19:43.809Z,93631.56
2024-04-16T04:22:30.656Z,93640.13
2024-04-16T04:25:03.754Z,93654.66
2024-04-16T04:27:50.637Z,93656.44
2024-04-16T04:30:31.790Z,93655.69
2024-04-16T04:33:11.671Z,93659.16
2024-04-16T04:35:58.614Z,93654.91
2024-04-16T04:38:52.604Z,93658.44
2024-04-16T04:41:39.629Z,93661.06
2024-04-16T04:44:12.803Z,93656.78
2024-04-16T04:47:00.694Z,93645.72
2024-04-16T04:49:33.841Z,93642.25
2024-04-16T04:52:20.646Z,93642.19
2024-04-16T04:54:53.757Z,93636.22
2024-04-16T04:57:49.636Z,93636.22
2024-04-16T05:00:44.642Z,93657.56
2024-04-16T05:03:31.660Z,93647.38
2024-04-16T05:06:07.419Z,93657.59
2024-04-16T05:08:54.656Z,93660.16
2024-04-16T05:11:27.925Z,93645.00
2024-04-16T05:14:17.629Z,93648.19
2024-04-16T05:17:04.642Z,93671.03
2024-04-16T05:19:58.675Z,93683.91
2024-04-16T05:22:46.943Z,93669.44
2024-04-16T05:25:20.807Z,93675.47
2024-04-16T05:28:07.709Z,93668.56
2024-04-16T05:30:42.324Z,93653.25
2024-04-16T05:33:29.704Z,93666.00
2024-04-16T05:36:05.939Z,93643.78
2024-04-16T05:38:53.707Z,93634.53
2024-04-16T05:41:26.785Z,93621.66
2024-04-16T05:44:13.721Z,93624.16
2024-04-16T05:46:46.820Z,93630.94
2024-04-16T05:49:33.719Z,93631.81
2024-04-16T05:52:14.719Z,93640.41
2024-04-16T05:55:08.699Z,93636.22
2024-04-16T05:57:55.718Z,93622.50
2024-04-16T06:00:28.787Z,93637.84
2024-04-16T06:03:15.718Z,93635.28
2024-04-16T06:05:59.041Z,93639.50
2024-04-16T06:08:40.673Z,93641.91
2024-04-16T06:11:23.726Z,93640.09
2024-04-16T06:14:03.810Z,93635.59
2024-04-16T06:16:43.799Z,93627.72
2024-04-16T06:19:23.735Z,93635.19
2024-04-16T06:22:03.866Z,93637.56
2024-04-16T06:24:43.705Z,93638.22
2024-04-16T06:27:23.770Z,93636.22
2024-04-16T06:30:10.647Z,93630.97
2024-04-16T06:32:46.579Z,93620.53
2024-04-16T06:35:33.714Z,93616.22
2024-04-16T06:38:06.864Z,93628.97
2024-04-16T06:40:53.733Z,93638.25
2024-04-16T06:43:33.723Z,93633.06
2024-04-16T06:46:20.733Z,93650.84
2024-04-16T06:49:05.143Z,93653.25
2024-04-16T06:51:59.758Z,93664.38
2024-04-16T06:54:39.705Z,93682.34
2024-04-16T06:57:33.743Z,93697.78
2024-04-16T07:00:20.738Z,93709.94
2024-04-16T07:02:53.845Z,93717.09
2024-04-16T07:05:40.727Z,93710.53
2024-04-16T07:08:14.855Z,93716.63
2024-04-16T07:11:01.751Z,93715.03
2024-04-16T07:13:37.414Z,93719.38
2024-04-16T07:16:24.770Z,93723.81
2024-04-16T07:18:57.862Z,93716.28
2024-04-16T07:21:44.691Z,93712.25
2024-04-16T07:24:17.867Z,93690.25
2024-04-16T07:27:04.702Z,93696.56
2024-04-16T07:29:37.825Z,93687.25
2024-04-16T07:32:40.085Z,93684.78
2024-04-16T07:35:26.698Z,93668.84
2024-04-16T07:37:59.841Z,93650.13
2024-04-16T07:40:46.733Z,93661.25
2024-04-16T07:43:20.190Z,93656.16
2024-04-16T07:46:06.743Z,93660.34
2024-04-16T07:48:42.075Z,93662.09
2024-04-16T07:51:28.701Z,93668.78
2024-04-16T07:54:01.902Z,93683.19
2024-04-16T07:56:48.790Z,93689.06
2024-04-16T07:59:21.834Z,93694.34
2024-04-16T08:02:08.894Z,93688.63
2024-04-16T08:04:42.963Z,93683.56
2024-04-16T08:07:32.809Z,93688.72
2024-04-16T08:10:05.894Z,93687.19
2024-04-16T08:12:52.708Z,93694.97
2024-04-16T08:15:32.769Z,93698.47
2024-04-16T08:18:22.004Z,93695.09
2024-04-16T08:21:02.805Z,93699.44
2024-04-16T08:23:49.757Z,93702.00
2024-04-16T08:26:25.556Z,93715.47
2024-04-16T08:29:12.816Z,93710.25
2024-04-16T08:31:45.961Z,93714.44
2024-04-16T08:34:32.841Z,93705.81
2024-04-16T08:37:12.812Z,93701.47
2024-04-16T08:40:06.855Z,93700.56
2024-04-16T08:42:53.984Z,93703.59
2024-04-16T08:45:29.943Z,93685.50
2024-04-16T08:48:17.836Z,93689.72
2024-04-16T08:50:52.871Z,93696.31
2024-04-16T08:53:40.782Z,93713.19
2024-04-16T08:56:21.763Z,93716.47
2024-04-16T08:59:09.771Z,93724.97
2024-04-16T09:01:50.892Z,93737.72
2024-04-16T09:04:44.968Z,93742.84
2024-04-16T09:07:27.829Z,93741.81
2024-04-16T09:10:28.914Z,93746.13
2024-04-16T09:13:17.829Z,93732.59
2024-04-16T09:15:51.881Z,93735.16
2024-04-16T09:18:40.806Z,93732.47
2024-04-16T09:21:13.900Z,93731.44
2024-04-16T09:24:03.846Z,93732.28
2024-04-16T09:26:48.847Z,93727.25
2024-04-16T09:29:35.778Z,93711.94
2024-04-16T09:32:17.872Z,93705.84
2024-04-16T09:35:11.792Z,93717.50
2024-04-16T09:38:12.800Z,93698.41
2024-04-16T09:41:07.848Z,93694.72
2024-04-16T09:43:55.770Z,93692.66
2024-04-16T09:46:30.965Z,93696.03
2024-04-16T09:49:21.817Z,93706.22
2024-04-16T09:51:57.158Z,93712.16
2024-04-16T09:54:47.794Z,93710.19
2024-04-16T09:57:23.123Z,93719.34
2024-04-16T10:00:10.227Z,93733.22
2024-04-16T10:02:46.962Z,93727.53
2024-04-16T10:05:36.319Z,93729.97
2024-04-16T10:08:22.880Z,93730.94
2024-04-16T10:11:01.278Z,93729.03
2024-04-16T10:13:53.807Z,93721.13
2024-04-16T10:16:27.847Z,93726.00
2024-04-16T10:19:21.654Z,93718.19
2024-04-16T10:22:02.144Z,93735.28
2024-04-16T10:24:48.803Z,93738.66
2024-04-16T10:27:25.855Z,93743.84
2024-04-16T10:30:23.809Z,93736.06
2024-04-16T10:32:58.541Z,93734.94
2024-04-16T10:35:50.380Z,93740.97
2024-04-16T10:38:27.450Z,93741.81
2024-04-16T10:41:17.788Z,93752.94
2024-04-16T10:43:51.415Z,93747.03
2024-04-16T10:46:38.977Z,93751.47
2024-04-16T10:49:13.261Z,93740.47
2024-04-16T10:51:59.853Z,93739.69
2024-04-16T10:54:45.943Z,93726.88
2024-04-16T10:57:33.800Z,93715.03
2024-04-16T11:00:14.900Z,93719.34
2024-04-16T11:02:55.164Z,93739.00
2024-04-16T11:05:34.855Z,93718.78
2024-04-16T11:08:15.893Z,93736.81
2024-04-16T11:10:57.994Z,93754.94
2024-04-16T11:13:41.007Z,93766.16
2024-04-16T11:16:20.887Z,93747.53
2024-04-16T11:19:01.022Z,93745.22
2024-04-16T11:21:41.864Z,93745.28
2024-04-16T11:24:21.992Z,93746.25
2024-04-16T11:27:01.849Z,93740.47
2024-04-16T11:29:41.899Z,93727.72
2024-04-16T11:32:21.969Z,93723.44
2024-04-16T11:35:02.014Z,93704.44
2024-04-16T11:37:50.930Z,93716.28
2024-04-16T11:40:37.945Z,93739.91
2024-04-16T11:43:11.221Z,93754.44
2024-04-16T11:45:57.867Z,93757.09
2024-04-16T11:48:32.342Z,93758.06
2024-04-16T11:51:21.866Z,93747.97
2024-04-16T11:53:55.215Z,93743.22
2024-04-16T11:56:41.859Z,93755.25
2024-04-16T11:59:21.859Z,93772.22
2024-04-16T12:02:12.791Z,93778.28
2024-04-16T12:04:46.580Z,93773.31
2024-04-16T12:07:33.899Z,93771.00
2024-04-16T12:10:27.872Z,93774.56
2024-04-16T12:13:14.924Z,93768.66
2024-04-16T12:15:54.952Z,93778.84
2024-04-16T12:18:41.856Z,93782.25
2024-04-16T12:21:14.982Z,93775.38
2024-04-16T12:24:01.858Z,93769.44
2024-04-16T12:26:34.967Z,93767.72
2024-04-16T12:29:21.905Z,93770.28
2024-04-16T12:32:05.024Z,93764.31
2024-04-16T12:34:48.294Z,93770.34
2024-04-16T12:37:34.939Z,93773.19
2024-04-16T12:40:28.898Z,93764.88
2024-04-16T12:43:15.927Z,93751.44
2024-04-16T12:45:49.019Z,93746.44
2024-04-16T12:48:35.979Z,93744.06
2024-04-16T12:51:09.985Z,93737.63
2024-04-16T12:53:56.879Z,93742.09
2024-04-16T12:56:29.962Z,93746.44
2024-04-16T12:59:16.935Z,93744.88
2024-04-16T13:01:51.066Z,93749.53
2024-04-16T13:04:37.912Z,93737.75
2024-04-16T13:07:11.074Z,93750.47
2024-04-16T13:09:57.913Z,93769.28
2024-04-16T13:12:34.150Z,93779.69
2024-04-16T13:15:20.947Z,93786.59
2024-04-16T13:18:01.137Z,93786.66
2024-04-16T13:20:55.980Z,93796.97
2024-04-16T13:23:42.974Z,93784.28
2024-04-16T13:26:15.985Z,93798.88
2024-04-16T13:29:02.923Z,93798.88
2024-04-16T13:31:36.137Z,93803.22
2024-04-16T13:34:23.944Z,93806.59
2024-04-16T13:37:04.045Z,93817.56
2024-04-16T13:39:43.885Z,93810.72
2024-04-16T13:42:23.999Z,93801.34
2024-04-16T13:45:03.942Z,93813.88
2024-04-16T13:47:44.165Z,93807.16
2024-04-16T13:50:23.919Z,93808.31
2024-04-16T13:53:10.945Z,93796.44
2024-04-16T13:55:51.974Z,93795.66
2024-04-16T13:58:32.080Z,93806.75
2024-04-16T14:01:12.017Z,93799.25
2024-04-16T14:03:59.906Z,93794.94
2024-04-16T14:06:34.009Z,93795.84
2024-04-16T14:09:24.429Z,93782.16
2024-04-16T14:11:58.271Z,93780.53
2024-04-16T14:14:44.992Z,93786.47
2024-04-16T14:17:19.710Z,93772.84
2024-04-16T14:20:08.843Z,93784.88
2024-04-16T14:22:42.422Z,93779.09
2024-04-16T14:25:33.945Z,93783.44
2024-04-16T14:28:08.263Z,93782.59
2024-04-16T14:30:55.914Z,93793.69
2024-04-16T14:33:29.355Z,93790.44
2024-04-16T14:36:15.944Z,93795.56
2024-04-16T14:39:12.655Z,93782.72
2024-04-16T14:42:08.945Z,93770.81
2024-04-16T14:44:55.918Z,93769.22
2024-04-16T14:47:29.099Z,93767.72
2024-04-16T14:50:24.839Z,93766.94
2024-04-16T14:52:58.158Z,93757.56
2024-04-16T14:55:45.012Z,93758.44
2024-04-16T14:58:18.083Z,93753.28
2024-04-16T15:01:04.981Z,93748.94
2024-04-16T15:03:39.101Z,93752.44
2024-04-16T15:06:26.980Z,93755.78
2024-04-16T15:09:03.281Z,93760.00
2024-04-16T15:11:49.951Z,93762.50
2024-04-16T15:14:23.091Z,93760.66
2024-04-16T15:17:10.024Z,93757.19
2024-04-16T15:19:56.023Z,93753.72
2024-04-16T15:22:35.935Z,93751.81
2024-04-16T15:25:16.053Z,93741.69
2024-04-16T15:27:55.951Z,93735.72
2024-04-16T15:30:37.542Z,93730.00
2024-04-16T15:33:18.039Z,93731.97
2024-04-16T15:36:06.946Z,93728.69
2024-04-16T15:38:53.952Z,93723.63
2024-04-16T15:41:40.949Z,93721.19
2024-04-16T15:44:14.096Z,93726.41
2024-04-16T15:47:01.952Z,93723.06
2024-04-16T15:49:35.083Z,93723.94
2024-04-16T15:52:21.981Z,93725.84
2024-04-16T15:54:56.042Z,93721.69
2024-04-16T15:57:43.979Z,93724.16
2024-04-16T16:00:18.047Z,93723.44
2024-04-16T16:03:05.022Z,93720.91
2024-04-16T16:05:39.075Z,93708.09
2024-04-16T16:08:25.974Z,93692.69
2024-04-16T16:10:59.212Z,93701.34
2024-04-16T16:13:45.973Z,93699.72
2024-04-16T16:16:19.081Z,93700.59
2024-04-16T16:19:05.971Z,93701.63
2024-04-16T16:21:39.138Z,93703.34
2024-04-16T16:24:25.967Z,93708.56
2024-04-16T16:26:59.089Z,93703.59
2024-04-16T16:29:47.012Z,93704.56
2024-04-16T16:32:20.135Z,93699.44
2024-04-16T16:35:11.965Z,93692.03
2024-04-16T16:37:52.063Z,93689.72
2024-04-16T16:40:46.028Z,93697.44
2024-04-16T16:43:33.107Z,93693.25
2024-04-16T16:46:10.069Z,93701.00
2024-04-16T16:48:56.991Z,93694.19
2024-04-16T16:51:37.016Z,93695.06
2024-04-16T16:54:23.993Z,93694.16
2024-04-16T16:56:57.079Z,93694.19
2024-04-16T16:59:43.973Z,93692.66
2024-04-16T17:02:18.026Z,93700.53
2024-04-16T17:05:04.974Z,93708.38
2024-04-16T17:07:38.121Z,93720.47
2024-04-16T17:10:25.066Z,93725.56
2024-04-16T17:13:05.090Z,93712.97
2024-04-16T17:15:45.045Z,93713.00
2024-04-16T17:18:25.319Z,93712.34
2024-04-16T17:21:06.976Z,93726.97
2024-04-16T17:23:47.248Z,93745.63
2024-04-16T17:26:32.989Z,93745.72
2024-04-16T17:29:13.127Z,93756.06
2024-04-16T17:31:53.053Z,93762.13
2024-04-16T17:34:33.056Z,93760.59
2024-04-16T17:37:06.096Z,93751.38
2024-04-16T17:39:59.998Z,93751.34
2024-04-16T17:42:47.008Z,93752.28
2024-04-16T17:45:20.113Z,93754.13
2024-04-16T17:48:00.099Z,93756.88
2024-04-16T17:50:39.997Z,93770.63
2024-04-16T17:53:13.180Z,93774.97
2024-04-16T17:56:01.024Z,93775.09
2024-04-16T17:58:41.216Z,93782.97
2024-04-16T18:01:22.152Z,93783.97
2024-04-16T18:04:03.048Z,93786.56
2024-04-16T18:06:46.016Z,93782.41
2024-04-16T18:09:26.996Z,93785.91
2024-04-16T18:12:07.041Z,93796.22
2024-04-16T18:14:47.148Z,93792.94
2024-04-16T18:17:27.099Z,93785.41
2024-04-16T18:20:07.598Z,93778.78
2024-04-16T18:22:47.089Z,93781.50
2024-04-16T18:25:20.420Z,93774.81
2024-04-16T18:28:07.048Z,93762.19
2024-04-16T18:30:48.048Z,93763.13
2024-04-16T18:33:28.231Z,93762.56
2024-04-16T18:36:09.003Z,93772.88
2024-04-16T18:38:56.025Z,93772.22
2024-04-16T18:41:50.060Z,93779.22
2024-04-16T18:44:44.019Z,93778.66
2024-04-16T18:47:31.035Z,93770.41
2024-04-16T18:50:04.159Z,93755.34
2024-04-16T18:52:51.093Z,93756.25
2024-04-16T18:55:24.166Z,93756.50
2024-04-16T18:58:12.018Z,93753.25
2024-04-16T19:00:45.184Z,93744.91
2024-04-16T19:03:33.055Z,93746.72
2024-04-16T19:06:06.209Z,93746.06
2024-04-16T19:08:53.035Z,93752.22
2024-04-16T19:11:26.135Z,93754.91
2024-04-16T19:14:14.035Z,93765.38
2024-04-16T19:16:50.052Z,93773.13
2024-04-16T19:19:37.064Z,93765.50
2024-04-16T19:22:11.146Z,93758.78
2024-04-16T19:24:58.053Z,93758.09
2024-04-16T19:27:45.072Z,93748.03
2024-04-16T19:30:18.461Z,93748.06
2024-04-16T19:33:05.090Z,93753.31
2024-04-16T19:35:39.678Z,93755.91
2024-04-16T19:38:27.102Z,93745.81
2024-04-16T19:41:23.082Z,93729.88
2024-04-16T19:44:10.037Z,93729.19
2024-04-16T19:46:43.173Z,93726.00
2024-04-16T19:49:30.100Z,93721.91
2024-04-16T19:52:03.187Z,93702.53
2024-04-16T19:54:50.057Z,93703.47
2024-04-16T19:57:23.179Z,93711.97
2024-04-16T20:00:13.062Z,93716.34
2024-04-16T20:02:46.157Z,93720.72
2024-04-16T20:05:33.095Z,93715.75
2024-04-16T20:08:13.070Z,93710.00
2024-04-16T20:11:00.107Z,93725.44
2024-04-16T20:13:41.195Z,93739.81
2024-04-16T20:16:21.118Z,93732.22
2024-04-16T20:19:05.238Z,93737.34
2024-04-16T20:21:46.058Z,93753.53
2024-04-16T20:24:41.089Z,93749.25
2024-04-16T20:27:35.103Z,93750.91
2024-04-16T20:30:22.065Z,93725.63
2024-04-16T20:33:02.182Z,93733.31
2024-04-16T20:35:49.057Z,93734.22
2024-04-16T20:38:22.201Z,93730.81
2024-04-16T20:41:09.198Z,93721.66
2024-04-16T20:43:42.271Z,93729.28
2024-04-16T20:46:29.108Z,93729.34
2024-04-16T20:49:02.214Z,93729.38
2024-04-16T20:51:50.088Z,93719.31
2024-04-16T20:54:23.351Z,93719.31
2024-04-16T20:57:10.085Z,93708.34
2024-04-16T20:59:50.192Z,93718.66
2024-04-16T21:02:34.114Z,93709.34
2024-04-16T21:05:14.280Z,93710.31
2024-04-16T21:07:54.115Z,93708.72
2024-04-16T21:10:34.237Z,93717.28
2024-04-16T21:13:21.128Z,93700.53
2024-04-16T21:16:02.461Z,93695.56
2024-04-16T21:18:49.088Z,93689.81
2024-04-16T21:21:29.095Z,93683.09
2024-04-16T21:24:09.580Z,93686.56
2024-04-16T21:26:56.091Z,93683.19
2024-04-16T21:29:29.443Z,93682.31
2024-04-16T21:32:16.140Z,93683.19
2024-04-16T21:34:49.710Z,93682.47
2024-04-16T21:37:37.134Z,93694.44
2024-04-16T21:40:10.497Z,93697.22
2024-04-16T21:42:57.100Z,93703.94
2024-04-16T21:45:30.647Z,93709.81
2024-04-16T21:48:17.102Z,93718.28
2024-04-16T21:50:55.879Z,93722.56
2024-04-16T21:53:43.090Z,93718.44
2024-04-16T21:56:16.524Z,93721.19
2024-04-16T21:59:10.098Z,93733.91
2024-04-16T22:02:04.287Z,93732.34
2024-04-16T22:04:44.116Z,93734.94
2024-04-16T22:07:24.107Z,93733.34
2024-04-16T22:09:57.209Z,93741.06
2024-04-16T22:12:44.098Z,93734.41
2024-04-16T22:15:17.258Z,93733.63
2024-04-16T22:18:04.289Z,93729.47
2024-04-16T22:20:38.222Z,93737.94
2024-04-16T22:23:25.108Z,93744.72
2024-04-16T22:26:25.199Z,93746.44
2024-04-16T22:29:12.119Z,93753.22
2024-04-16T22:31:45.213Z,93755.75
2024-04-16T22:34:32.184Z,93749.91
2024-04-16T22:37:05.278Z,93752.44
2024-04-16T22:39:52.100Z,93760.91
2024-04-16T22:42:25.243Z,93750.00
2024-04-16T22:45:12.104Z,93755.09
2024-04-16T22:47:45.301Z,93750.91
2024-04-16T22:50:35.425Z,93749.25
2024-04-16T22:53:10.353Z,93749.31
2024-04-16T22:55:58.182Z,93745.94
2024-04-16T22:58:38.278Z,93759.41
2024-04-16T23:01:18.182Z,93764.50
2024-04-16T23:04:05.215Z,93771.25
2024-04-16T23:06:59.159Z,93752.75
2024-04-16T23:09:46.142Z,93760.38
2024-04-16T23:12:19.249Z,93750.31
2024-04-16T23:15:06.149Z,93754.59
2024-04-16T23:17:42.333Z,93762.22
2024-04-16T23:20:29.148Z,93763.09
2024-04-16T23:23:03.421Z,93769.78
2024-04-16T23:25:50.146Z,93762.22
2024-04-16T23:28:30.282Z,93752.16
2024-04-16T23:31:10.131Z,93762.31
2024-04-16T23:33:50.256Z,93763.19
2024-04-16T23:36:30.138Z,93761.50
2024-04-16T23:39:24.153Z,93751.50
2024-04-16T23:42:11.148Z,93743.13
2024-04-16T23:44:44.237Z,93732.19
2024-04-16T23:47:31.275Z,93735.59
2024-04-16T23:50:05.265Z,93740.69
2024-04-16T23:52:53.162Z,93734.81
2024-04-16T23:55:33.176Z,93733.16
2024-04-16T23:58:27.159Z,93719.69
